Weather observations for the past three days for
Burlington - Carson County Airport
Metric (Imperial)
Date Time (mdt) Wind (kph) Vis. (km) Weather Sky Cond. Temperature (ºC) Relative Humidity Wind Chill (°C) Heat Index (°C) Pressure Precipitation (cm)
Air Dwpt 6 hour altimeter (cm) sea level (mb) 1 hr 3 hr 6 hr
Max. Min.
04 16:53 Calm 16.09 A Few Clouds FEW110 25 -5.6 13% 25 75.36 1000.8
04 15:53 NW 11 16.09 A Few Clouds FEW120 25 -6.1 12% 25 75.36 1000.7
04 14:53 N 11 16.09 Fair CLR 25 -6.1 12% 25 75.39 1000.8
04 13:53 N 15 G 28 16.09 Fair CLR 26.7 -5.6 11% 26 75.41 1000.8
04 12:53 Vrbl 7 16.09 Fair CLR 25.6 -5 13% 25 75.46 1001.8
04 11:53 N 13 G 26 16.09 Fair CLR 24.4 -3.3 24.4 6.1 16% 24 75.54 1002.6
04 10:53 NW 20 16.09 Fair CLR 22.8 -2.2 19% 75.59 1003.4
04 09:53 N 15 16.09 Fair CLR 22.2 -1.7 20% 75.57 1003.3
04 08:53 N 13 G 39 16.09 Fair CLR 18.3 0.6 31% 75.59 1004.2
04 07:53 W 11 16.09 Fair CLR 16.7 1.1 35% 75.59 1003.5
04 06:53 W 15 16.09 Fair CLR 8.9 1.7 61% 7 75.59 1003.8
04 05:53 SW 15 16.09 Fair CLR 6.1 1.1 12.2 5.6 71% 3 75.57 1003.8
04 04:53 W 15 16.09 Fair CLR 6.7 1.1 68% 4 75.57 1003.5
04 03:53 W 17 16.09 Fair CLR 6.7 0.6 65% 4 75.59 1003.8
04 02:53 SW 15 16.09 Fair CLR 8.9 0.6 56% 7 75.59 1003.8
04 01:53 S 19 16.09 Fair CLR 10.6 0 48% 75.64 1004.2
04 00:53 SW 11 16.09 A Few Clouds FEW120 9.4 -0.6 50% 8 75.69 1005.0
03 23:53 S 17 16.09 A Few Clouds FEW120 11.7 -1.1 24.4 10.6 41% 75.74 1005.7
03 22:53 E 13 16.09 Fair CLR 11.7 -2.2 38% 75.77 1006.1
03 21:53 E 7 16.09 Fair CLR 13.3 -3.3 32% 75.77 1006.0
03 20:53 E 11 16.09 Fair CLR 12.8 -3.3 33% 75.74 1006.1
03 19:53 E 9 16.09 Fair CLR 17.2 -5 22% 75.72 1005.6
03 18:53 NE 7 16.09 Fair CLR 22.8 -5.6 15% 75.72 1005.5
03 17:53 N 13 16.09 Fair CLR 23.9 -7.2 25.6 21.7 12% 24 75.77 1006.4
03 16:53 NE 13 16.09 Fair CLR 25 -6.7 12% 25 75.79 1007.0
03 15:53 NE 19 G 37 16.09 Fair CLR 25 -6.1 12% 25 75.84 1007.6
03 14:53 N 17 16.09 Fair CLR 24.4 -5.6 13% 24 75.92 1008.3
03 13:53 NE 11 G 28 16.09 Fair CLR 23.9 -4.4 15% 24 75.97 1008.8
03 12:53 N 15 G 33 16.09 Fair CLR 23.3 -4.4 15% 76.05 1009.6
03 11:53 N 15 16.09 Fair CLR 21.7 -3.9 22.2 6.7 18% 76.1 1010.9
03 10:53 N 19 G 31 16.09 Fair CLR 21.7 -2.2 20% 76.15 1011.4
03 09:53 NW 24 16.09 Fair CLR 21.1 -3.9 18% 76.15 1011.3
03 08:53 W 24 16.09 Fair CLR 19.4 -0.6 26% 76.15 1011.4
03 07:53 SW 19 16.09 Fair CLR 16.1 -0.6 32% 76.12 1011.5
03 06:53 SW 13 16.09 Fair CLR 10 -1.7 44% 8 76.15 1011.6
03 05:53 SW 15 16.09 Fair CLR 6.7 -2.8 12.2 5 51% 4 76.12 1011.7
03 04:53 SW 17 16.09 Fair CLR 5.6 -3.3 53% 3 76.15 1012.0
03 03:53 SW 13 16.09 Fair CLR 6.1 -3.9 49% 4 76.17 1012.4
03 02:53 SW 17 16.09 Fair CLR 8.3 -3.3 44% 6 76.2 1012.6
03 01:53 SW 24 16.09 Fair CLR 10.6 -4.4 35% 76.25 1013.1
03 00:53 SW 20 16.09 Fair CLR 11.1 -4.4 34% 76.28 1013.8
02 23:53 SW 22 16.09 Fair CLR 10.6 -3.9 22.2 10 36% 76.28 1014.0
02 22:53 SW 22 16.09 Fair CLR 11.1 -4.4 34% 76.28 1014.1
02 21:53 SW 17 16.09 Fair CLR 11.7 -3.9 34% 76.3 1014.7
02 20:53 SW 17 16.09 Fair CLR 12.8 -3.3 33% 76.3 1014.9
02 19:53 SW 19 16.09 Fair CLR 15 -3.3 28% 76.28 1014.9
02 18:53 SW 17 16.09 Fair CLR 20.6 -4.4 18% 76.28 1014.8
02 17:53 Vrbl 6 16.09 Fair CLR 21.7 -7.2 22.8 16.7 14% 76.28 1015.2
02 16:53 Calm 16.09 Fair CLR 21.7 -8.3 13% 76.3 1015.5
02 15:53 NW 17 G 31 16.09 Fair CLR 22.2 -7.2 13% 76.35 1016.0
02 14:53 S 17 G 30 16.09 Fair CLR 21.1 -5 17% 76.43 1016.6
02 13:53 Vrbl 9 16.09 Fair CLR 20.6 -3.9 19% 76.5 1017.6
02 12:53 Vrbl 6 16.09 Fair CLR 18.3 -2.2 25% 76.56 1018.7
02 11:53 Calm 16.09 Fair CLR 16.7 -1.7 17.8 -2.8 29% 76.63 1020.1
02 10:53 SW 11 G 28 16.09 Fair CLR 15 0.6 38% 76.68 1020.9
02 09:53 S 19 16.09 Fair CLR 12.8 0.6 44% 76.68 1020.8
02 08:53 S 20 16.09 Fair CLR 10 2.2 59% 8 76.71 1021.1
02 07:53 Calm 16.09 Fair CLR 5.6 3.3 85% 76.71 1021.3
02 06:53 Calm 9.66 Fog/Mist CLR 0.6 0 96% 76.71 1021.5
02 05:53 Calm 12.87 Fair CLR -1.7 -1.7 3.3 -3.3 100% 76.68 1021.2
02 04:53 Calm 16.09 Fair CLR -1.7 -1.7 100% 76.66 1020.9
02 03:53 Calm 16.09 Fair CLR -1.7 -2.2 96% 76.63 1020.7
02 02:53 Calm 16.09 Fair CLR 2.8 1.7 93% 76.58 1019.6
02 01:53 S 11 16.09 Fair CLR 2.2 1.1 93% -1 76.58 1019.7
02 00:53 S 17 16.09 Fair CLR 2.2 0.6 89% -2 76.61 1019.7
01 23:53 S 13 16.09 Fair CLR 1.7 0 16.7 1.7 89% -2 76.61 1020.0
01 22:53 SE 13 16.09 Fair CLR 2.8 -0.6 79% -0 76.58 1019.6
01 21:53 SE 19 16.09 Fair CLR 6.1 -1.7 58% 3 76.53 1018.8
01 20:53 E 20 16.09 Fair CLR 8.9 -2.2 46% 6 76.48 1017.8
01 19:53 E 15 16.09 Overcast OVC100 12.2 -3.3 34% 76.4 1017.0
01 18:53 N 15 16.09 Mostly Cloudy BKN110 15.6 -5.6 23% 76.35 1016.6
01 17:53 N 17 16.09 Mostly Cloudy BKN110 16.7 -7.2 17.8 13.9 19% 76.35 1016.4
Date Time (mdt) Wind (kph) Vis. (km) Weather Sky Cond. Air Dwpt Max. Min. Relative Humidity Wind Chill (°C) Heat Index (°C) altimeter (cm) sea level (mb) 1 hr 3 hr 6 hr
6 hour
Temperature (ºC) Pressure Precipitation (cm)